Woomera Airfield

Airport
ICAO code: 
YPWR
IATA Code: 
UMR
Summary
ICAO Region: 
APAC
Territory: 
Location: 
Woomera, South Australia
Serving: 
Woomera
Elevation: 
548 ft
Coordinates: 
Aerial View: 
31° 8' 39.001" S, 136° 49' 0.998" E
Metar
Observation
YPWR 020000Z AUTO 18009KT 9999 // NCD 28/13 Q1014 RF00.0/000.0
Station
Woomera Aerodrome
Date/Time
2021-12-02 00:00:00
Wind direction
180°
Wind speed
09 kts
Lowest cloud amount
no clouds detected
Temperature
28°C
Dew point
13°C
Humidity
39%
QNH
1014 hPa
Weather condition
n/a

Runways

Designator Length Width Surface Rops
12/30 1614 30 GVL No/No
18/36 2372 45 ASP No/No
Airport map: 
Aerial View: 

SKYbrary Partners:

Safety knowledge contributed by: